createdAt,value
2018-07-06T00:02:49.188Z,96715.00
2018-07-06T00:06:31.649Z,96716.00
2018-07-06T00:10:13.783Z,96721.00
2018-07-06T00:13:55.603Z,96719.00
2018-07-06T00:17:19.165Z,96720.00
2018-07-06T00:20:42.709Z,96722.00
2018-07-06T00:24:24.666Z,96718.00
2018-07-06T00:27:47.686Z,96712.00
2018-07-06T00:31:10.854Z,96715.00
2018-07-06T00:34:52.595Z,96713.00
2018-07-06T00:38:34.119Z,96707.00
2018-07-06T00:41:57.531Z,96719.00
2018-07-06T00:45:39.423Z,96710.00
2018-07-06T00:49:02.661Z,96711.00
2018-07-06T00:52:44.460Z,96711.00
2018-07-06T00:56:26.385Z,96712.00
2018-07-06T00:59:49.636Z,96709.00
2018-07-06T01:03:13.030Z,96710.00
2018-07-06T01:06:54.791Z,96706.00
2018-07-06T01:10:17.887Z,96706.00
2018-07-06T01:13:40.945Z,96710.00
2018-07-06T01:17:22.640Z,96707.00
2018-07-06T01:20:46.119Z,96709.00
2018-07-06T01:24:27.982Z,96719.00
2018-07-06T01:28:09.508Z,96723.00
2018-07-06T01:31:32.608Z,96713.00
2018-07-06T01:34:55.799Z,96717.00
2018-07-06T01:38:37.221Z,96713.00
2018-07-06T01:42:19.186Z,96717.00
2018-07-06T01:45:42.362Z,96723.00
2018-07-06T01:49:24.214Z,96719.00
2018-07-06T01:53:05.860Z,96722.00
2018-07-06T01:56:47.589Z,96713.00
2018-07-06T02:00:29.413Z,96710.00
2018-07-06T02:04:11.081Z,96708.00
2018-07-06T02:07:53.465Z,96709.00
2018-07-06T02:11:35.095Z,96710.00
2018-07-06T02:15:16.765Z,96706.00
2018-07-06T02:18:58.581Z,96706.00
2018-07-06T02:26:10.241Z,96707.00
2018-07-06T02:29:52.031Z,96709.00
2018-07-06T02:33:15.272Z,96713.00
2018-07-06T02:36:57.367Z,96703.00
2018-07-06T02:40:39.156Z,96712.00
2018-07-06T02:44:20.911Z,96712.00
2018-07-06T02:48:02.782Z,96715.00
2018-07-06T02:51:44.607Z,96715.00
2018-07-06T02:55:26.973Z,96714.00
2018-07-06T02:59:08.838Z,96709.00
2018-07-06T03:02:50.631Z,96714.00
2018-07-06T03:06:13.900Z,96719.00
2018-07-06T03:09:37.155Z,96722.00
2018-07-06T03:13:18.870Z,96723.00
2018-07-06T03:17:00.539Z,96728.00
2018-07-06T03:20:42.503Z,96725.00
2018-07-06T03:24:24.558Z,96729.00
2018-07-06T03:28:06.156Z,96724.00
2018-07-06T03:31:29.290Z,96731.00
2018-07-06T03:34:52.468Z,96731.00
2018-07-06T03:38:34.175Z,96733.00
2018-07-06T03:42:16.009Z,96734.00
2018-07-06T03:45:57.715Z,96727.00
2018-07-06T03:49:39.653Z,96727.00
2018-07-06T03:53:20.907Z,96731.00
2018-07-06T03:57:02.765Z,96727.00
2018-07-06T04:00:44.769Z,96729.00
2018-07-06T04:04:08.395Z,96721.00
2018-07-06T04:07:31.818Z,96732.00
2018-07-06T04:10:55.217Z,96735.00
2018-07-06T04:14:37.244Z,96725.00
2018-07-06T04:18:00.712Z,96739.00
2018-07-06T04:21:42.155Z,96740.00
2018-07-06T04:25:23.941Z,96727.00
2018-07-06T04:29:05.767Z,96745.00
2018-07-06T04:32:47.684Z,96749.00
2018-07-06T04:36:29.600Z,96743.00
2018-07-06T04:40:11.341Z,96745.00
2018-07-06T04:43:52.946Z,96755.00
2018-07-06T04:47:34.809Z,96744.00
2018-07-06T04:51:16.767Z,96748.00
2018-07-06T04:54:58.808Z,96757.00
2018-07-06T04:58:40.880Z,96759.00
2018-07-06T05:02:22.718Z,96759.00
2018-07-06T05:06:04.671Z,96768.00
2018-07-06T05:09:46.482Z,96769.00
2018-07-06T05:13:28.074Z,96772.00
2018-07-06T05:17:09.602Z,96765.00
2018-07-06T05:20:51.600Z,96775.00
2018-07-06T05:24:33.389Z,96783.00
2018-07-06T05:28:15.063Z,96780.00
2018-07-06T05:31:56.749Z,96777.00
2018-07-06T05:35:19.953Z,96776.00
2018-07-06T05:38:44.224Z,96771.00
2018-07-06T05:42:07.379Z,96786.00
2018-07-06T05:45:49.987Z,96787.00
2018-07-06T05:49:32.097Z,96793.00
2018-07-06T05:53:13.868Z,96795.00
2018-07-06T05:56:55.722Z,96800.00
2018-07-06T06:00:18.948Z,96801.00
2018-07-06T06:04:00.525Z,96794.00
2018-07-06T06:07:24.114Z,96795.00
2018-07-06T06:09:52.132Z,96803.00
2018-07-06T06:12:20.288Z,96805.00
2018-07-06T06:14:48.650Z,96810.00
2018-07-06T06:17:16.588Z,96809.00
2018-07-06T06:19:44.555Z,96816.00
2018-07-06T06:22:12.543Z,96819.00
2018-07-06T06:24:40.474Z,96814.00
2018-07-06T06:27:08.676Z,96819.00
2018-07-06T06:29:36.660Z,96818.00
2018-07-06T06:32:05.466Z,96818.00
2018-07-06T06:34:33.399Z,96825.00
2018-07-06T06:37:01.779Z,96828.00
2018-07-06T06:39:30.143Z,96826.00
2018-07-06T06:41:58.029Z,96837.00
2018-07-06T06:44:26.031Z,96829.00
2018-07-06T06:46:54.049Z,96836.00
2018-07-06T06:49:21.982Z,96841.00
2018-07-06T06:51:49.924Z,96852.00
2018-07-06T06:54:17.841Z,96853.00
2018-07-06T06:56:45.815Z,96851.00
2018-07-06T06:59:13.808Z,96850.00
2018-07-06T07:01:41.758Z,96847.00
2018-07-06T07:04:09.688Z,96846.00
2018-07-06T07:06:38.085Z,96846.00
2018-07-06T07:09:06.275Z,96854.00
2018-07-06T07:11:34.627Z,96847.00
2018-07-06T07:14:02.667Z,96862.00
2018-07-06T07:16:30.726Z,96855.00
2018-07-06T07:18:58.804Z,96862.00
2018-07-06T07:21:26.767Z,96850.00
2018-07-06T07:23:54.684Z,96862.00
2018-07-06T07:26:22.673Z,96867.00
2018-07-06T07:28:50.623Z,96860.00
2018-07-06T07:31:18.656Z,96865.00
2018-07-06T07:33:46.602Z,96871.00
2018-07-06T07:36:14.588Z,96867.00
2018-07-06T07:38:42.565Z,96864.00
2018-07-06T07:41:10.505Z,96870.00
2018-07-06T07:43:38.411Z,96869.00
2018-07-06T07:46:06.355Z,96867.00
2018-07-06T07:48:34.282Z,96868.00
2018-07-06T07:51:48.579Z,96865.00
2018-07-06T07:54:29.584Z,96868.00
2018-07-06T07:56:58.697Z,96870.00
2018-07-06T07:59:30.627Z,96868.00
2018-07-06T08:01:59.519Z,96879.00
2018-07-06T08:04:27.403Z,96874.00
2018-07-06T08:06:55.874Z,96875.00
2018-07-06T08:09:24.274Z,96874.00
2018-07-06T08:11:53.732Z,96880.00
2018-07-06T08:14:22.447Z,96876.00
2018-07-06T08:16:50.531Z,96883.00
2018-07-06T08:19:18.653Z,96889.00
2018-07-06T08:21:46.995Z,96890.00
2018-07-06T08:24:15.044Z,96893.00
2018-07-06T08:26:42.994Z,96893.00
2018-07-06T08:29:11.002Z,96889.00
2018-07-06T08:31:39.179Z,96888.00
2018-07-06T08:35:02.441Z,96891.00
2018-07-06T08:38:07.198Z,96892.00
2018-07-06T08:40:35.211Z,96892.00
2018-07-06T08:43:04.397Z,96889.00
2018-07-06T08:45:33.019Z,96893.00
2018-07-06T08:48:00.939Z,96898.00
2018-07-06T08:50:29.020Z,96894.00
2018-07-06T08:52:57.292Z,96902.00
2018-07-06T08:55:25.765Z,96895.00
2018-07-06T08:57:54.989Z,96905.00
2018-07-06T09:00:22.914Z,96903.00
2018-07-06T09:02:50.877Z,96907.00
2018-07-06T09:05:18.789Z,96913.00
2018-07-06T09:07:46.709Z,96907.00
2018-07-06T09:10:14.664Z,96910.00
2018-07-06T09:12:42.648Z,96914.00
2018-07-06T09:15:10.627Z,96911.00
2018-07-06T09:17:38.573Z,96909.00
2018-07-06T09:20:06.691Z,96915.00
2018-07-06T09:22:34.487Z,96902.00
2018-07-06T09:25:03.693Z,96898.00
2018-07-06T09:27:31.628Z,96891.00
2018-07-06T09:29:59.582Z,96891.00
2018-07-06T09:32:27.523Z,96894.00
2018-07-06T09:34:55.451Z,96900.00
2018-07-06T09:37:23.508Z,96913.00
2018-07-06T09:39:51.467Z,96902.00
2018-07-06T09:42:19.598Z,96911.00
2018-07-06T09:44:47.534Z,96906.00
2018-07-06T09:47:15.511Z,96915.00
2018-07-06T09:49:43.488Z,96908.00
2018-07-06T09:52:11.420Z,96904.00
2018-07-06T09:54:39.329Z,96907.00
2018-07-06T09:57:07.249Z,96917.00
2018-07-06T09:59:35.208Z,96913.00
2018-07-06T10:02:03.214Z,96932.00
2018-07-06T10:04:31.333Z,96930.00
2018-07-06T10:06:59.252Z,96933.00
2018-07-06T10:09:27.198Z,96933.00
2018-07-06T10:11:55.101Z,96922.00
2018-07-06T10:14:23.030Z,96934.00
2018-07-06T10:16:50.970Z,96923.00
2018-07-06T10:19:18.888Z,96920.00
2018-07-06T10:21:46.849Z,96913.00
2018-07-06T10:24:14.746Z,96908.00
2018-07-06T10:26:42.670Z,96904.00
2018-07-06T10:30:28.977Z,96908.00
2018-07-06T10:32:56.985Z,96910.00
2018-07-06T10:35:24.884Z,96912.00
2018-07-06T10:37:52.803Z,96908.00
2018-07-06T10:40:20.762Z,96902.00
2018-07-06T10:42:48.684Z,96907.00
2018-07-06T10:45:16.621Z,96903.00
2018-07-06T10:47:44.573Z,96901.00
2018-07-06T10:50:12.532Z,96896.00
2018-07-06T10:52:40.460Z,96891.00
2018-07-06T10:55:08.388Z,96894.00
2018-07-06T10:57:36.336Z,96891.00
2018-07-06T11:00:04.304Z,96899.00
2018-07-06T11:02:32.285Z,96903.00
2018-07-06T11:05:00.209Z,96902.00
2018-07-06T11:07:28.112Z,96909.00
2018-07-06T11:09:56.064Z,96919.00
2018-07-06T11:12:23.978Z,96927.00
2018-07-06T11:14:51.929Z,96931.00
2018-07-06T11:17:19.834Z,96925.00
2018-07-06T11:19:47.769Z,96941.00
2018-07-06T11:22:15.703Z,96935.00
2018-07-06T11:24:43.619Z,96943.00
2018-07-06T11:27:11.552Z,96935.00
2018-07-06T11:29:39.495Z,96927.00
2018-07-06T11:32:07.445Z,96939.00
2018-07-06T11:34:35.370Z,96944.00
2018-07-06T11:37:03.302Z,96951.00
2018-07-06T11:39:31.243Z,96953.00
2018-07-06T11:41:59.215Z,96956.00
2018-07-06T11:44:27.129Z,96960.00
2018-07-06T11:46:55.079Z,96958.00
2018-07-06T11:49:22.996Z,96959.00
2018-07-06T11:51:50.936Z,96961.00
2018-07-06T11:54:18.855Z,96962.00
2018-07-06T11:56:46.807Z,96967.00
2018-07-06T11:59:14.758Z,96968.00
2018-07-06T12:01:42.759Z,96980.00
2018-07-06T12:04:10.687Z,96992.00
2018-07-06T12:06:38.585Z,96977.00
2018-07-06T12:09:06.571Z,96974.00
2018-07-06T12:11:34.497Z,96970.00
2018-07-06T12:14:02.483Z,96974.00
2018-07-06T12:16:30.425Z,96968.00
2018-07-06T12:18:58.379Z,96959.00
2018-07-06T12:21:26.301Z,96957.00
2018-07-06T12:23:54.223Z,96950.00
2018-07-06T12:26:23.030Z,96951.00
2018-07-06T12:28:51.426Z,96943.00
2018-07-06T12:31:19.344Z,96948.00
2018-07-06T12:33:47.340Z,96938.00
2018-07-06T12:36:15.283Z,96940.00
2018-07-06T12:38:43.232Z,96932.00
2018-07-06T12:41:11.157Z,96923.00
2018-07-06T12:43:39.093Z,96929.00
2018-07-06T12:46:07.020Z,96918.00
2018-07-06T12:48:34.933Z,96914.00
2018-07-06T12:51:02.925Z,96908.00
2018-07-06T12:53:30.868Z,96906.00
2018-07-06T12:55:58.823Z,96909.00
2018-07-06T12:58:26.819Z,96890.00
2018-07-06T13:00:54.696Z,96881.00
2018-07-06T13:03:22.627Z,96886.00
2018-07-06T13:05:50.555Z,96917.00
2018-07-06T13:08:18.489Z,96918.00
2018-07-06T13:10:46.413Z,96913.00
2018-07-06T13:13:14.367Z,96927.00
2018-07-06T13:15:42.301Z,96917.00
2018-07-06T13:18:10.267Z,96901.00
2018-07-06T13:20:38.193Z,96924.00
2018-07-06T13:23:06.128Z,96940.00
2018-07-06T13:25:34.080Z,96926.00
2018-07-06T13:28:01.976Z,96903.00
2018-07-06T13:30:29.928Z,96909.00
2018-07-06T13:32:57.887Z,96922.00
2018-07-06T13:35:25.760Z,96928.00
2018-07-06T13:37:53.721Z,96904.00
2018-07-06T13:40:21.642Z,96887.00
2018-07-06T13:42:49.600Z,96927.00
2018-07-06T13:45:17.535Z,96951.00
2018-07-06T13:47:45.479Z,96941.00
2018-07-06T13:50:13.420Z,96945.00
2018-07-06T13:52:41.395Z,96943.00
2018-07-06T13:55:09.335Z,96940.00
2018-07-06T13:57:37.295Z,96905.00
2018-07-06T14:00:05.256Z,96924.00
2018-07-06T14:02:33.210Z,96939.00
2018-07-06T14:05:01.220Z,96940.00
2018-07-06T14:07:29.087Z,96939.00
2018-07-06T14:09:57.052Z,96944.00
2018-07-06T14:12:24.989Z,96955.00
2018-07-06T14:14:52.905Z,96953.00
2018-07-06T14:17:20.904Z,96948.00
2018-07-06T14:19:48.812Z,96959.00
2018-07-06T14:22:16.763Z,96971.00
2018-07-06T14:24:44.725Z,96968.00
2018-07-06T14:27:12.656Z,96973.00
2018-07-06T14:29:40.614Z,96985.00
2018-07-06T14:32:08.595Z,96977.00
2018-07-06T14:34:36.580Z,96967.00
2018-07-06T14:37:04.497Z,96950.00
2018-07-06T14:39:32.450Z,96942.00
2018-07-06T14:42:00.523Z,96933.00
2018-07-06T14:44:28.448Z,96929.00
2018-07-06T14:46:56.426Z,96926.00
2018-07-06T14:49:24.309Z,96924.00
2018-07-06T14:51:52.353Z,96927.00
2018-07-06T14:54:20.262Z,96915.00
2018-07-06T14:56:48.172Z,96873.00
2018-07-06T14:59:16.125Z,96621.00
2018-07-06T15:01:44.081Z,96571.00
2018-07-06T15:04:12.061Z,96570.00
2018-07-06T15:06:40.017Z,96564.00
2018-07-06T15:09:08.042Z,96606.00
2018-07-06T15:11:35.920Z,96623.00
2018-07-06T15:14:03.867Z,96604.00
2018-07-06T15:16:31.828Z,96609.00
2018-07-06T15:18:59.738Z,96839.00
2018-07-06T15:21:27.667Z,96873.00
2018-07-06T15:23:55.620Z,96880.00
2018-07-06T15:26:23.543Z,96884.00
2018-07-06T15:28:51.693Z,96887.00
2018-07-06T15:31:19.688Z,96895.00
2018-07-06T15:33:47.585Z,96897.00
2018-07-06T15:36:15.650Z,96904.00
2018-07-06T15:38:43.685Z,96921.00
2018-07-06T15:41:11.646Z,96935.00
2018-07-06T15:43:39.557Z,96934.00
2018-07-06T15:46:07.544Z,96934.00
2018-07-06T15:48:35.470Z,96953.00
2018-07-06T15:51:03.433Z,96935.00
2018-07-06T15:53:31.394Z,96942.00
2018-07-06T15:55:59.319Z,96987.00
2018-07-06T15:58:27.291Z,96997.00
2018-07-06T16:00:55.213Z,97019.00
2018-07-06T16:03:23.164Z,97029.00
2018-07-06T16:05:51.084Z,97042.00
2018-07-06T16:08:19.036Z,97042.00
2018-07-06T16:10:46.979Z,97044.00
2018-07-06T16:13:14.916Z,97046.00
2018-07-06T16:15:42.893Z,97046.00
2018-07-06T16:18:10.842Z,97055.00
2018-07-06T16:20:38.827Z,97062.00
2018-07-06T16:23:06.798Z,97067.00
2018-07-06T16:25:34.836Z,97071.00
2018-07-06T16:28:02.783Z,97093.00
2018-07-06T16:30:30.693Z,97106.00
2018-07-06T16:32:58.659Z,97112.00
2018-07-06T16:35:26.595Z,97113.00
2018-07-06T16:37:54.544Z,97128.00
2018-07-06T16:40:22.493Z,97115.00
2018-07-06T16:42:50.487Z,97119.00
2018-07-06T16:45:18.459Z,97118.00
2018-07-06T16:47:46.411Z,97124.00
2018-07-06T16:50:14.409Z,97119.00
2018-07-06T16:52:42.323Z,97119.00
2018-07-06T16:55:10.299Z,97126.00
2018-07-06T16:57:38.233Z,97123.00
2018-07-06T17:00:06.185Z,97121.00
2018-07-06T17:02:34.155Z,97113.00
2018-07-06T17:05:02.072Z,97111.00
2018-07-06T17:07:30.033Z,97097.00
2018-07-06T17:09:57.965Z,97101.00
2018-07-06T17:12:25.927Z,97097.00
2018-07-06T17:14:53.911Z,97090.00
2018-07-06T17:17:21.831Z,97093.00
2018-07-06T17:19:49.804Z,97098.00
2018-07-06T17:22:17.733Z,97095.00
2018-07-06T17:24:45.665Z,97097.00
2018-07-06T17:27:13.638Z,97094.00
2018-07-06T17:29:41.656Z,97099.00
2018-07-06T17:32:09.625Z,97099.00
2018-07-06T17:34:37.555Z,97096.00
2018-07-06T17:37:05.683Z,97101.00
2018-07-06T17:39:33.664Z,97099.00
2018-07-06T17:42:01.574Z,97097.00
2018-07-06T17:44:29.541Z,97096.00
2018-07-06T17:46:57.494Z,97098.00
2018-07-06T17:49:25.417Z,97092.00
2018-07-06T17:51:53.547Z,97080.00
2018-07-06T17:54:21.506Z,97091.00
2018-07-06T17:56:49.459Z,97087.00
2018-07-06T17:59:17.359Z,97093.00
2018-07-06T18:01:45.292Z,97099.00
2018-07-06T18:04:13.381Z,97092.00
2018-07-06T18:06:41.299Z,97086.00
2018-07-06T18:09:09.243Z,97090.00
2018-07-06T18:11:37.194Z,97094.00
2018-07-06T18:14:05.167Z,97103.00
2018-07-06T18:16:33.138Z,97112.00
2018-07-06T18:19:01.074Z,97105.00
2018-07-06T18:21:29.031Z,97073.00
2018-07-06T18:23:56.942Z,97063.00
2018-07-06T18:26:24.911Z,97058.00
2018-07-06T18:28:52.832Z,97058.00
2018-07-06T18:31:20.777Z,97059.00
2018-07-06T18:33:48.712Z,97059.00
2018-07-06T18:36:16.670Z,97065.00
2018-07-06T18:38:44.627Z,97066.00
2018-07-06T18:41:12.569Z,97059.00
2018-07-06T18:43:40.483Z,97067.00
2018-07-06T18:46:08.400Z,97083.00
2018-07-06T18:48:36.353Z,97105.00
2018-07-06T18:51:04.254Z,97110.00
2018-07-06T18:53:32.206Z,97120.00
2018-07-06T18:56:00.126Z,97122.00
2018-07-06T18:58:28.111Z,97132.00
2018-07-06T19:00:56.037Z,97133.00
2018-07-06T19:03:23.986Z,97141.00
2018-07-06T19:05:51.928Z,97138.00
2018-07-06T19:08:19.879Z,97136.00
2018-07-06T19:10:47.819Z,97146.00
2018-07-06T19:13:15.804Z,97149.00
2018-07-06T19:15:43.739Z,97145.00
2018-07-06T19:18:11.756Z,97135.00
2018-07-06T19:20:39.732Z,97133.00
2018-07-06T19:23:07.667Z,97137.00
2018-07-06T19:25:35.629Z,97140.00
2018-07-06T19:28:03.855Z,97142.00
2018-07-06T19:30:31.927Z,97145.00
2018-07-06T19:32:59.850Z,97155.00
2018-07-06T19:35:27.786Z,97166.00
2018-07-06T19:37:55.729Z,97171.00
2018-07-06T19:40:23.644Z,97173.00
2018-07-06T19:42:51.604Z,97167.00
2018-07-06T19:45:19.545Z,97177.00
2018-07-06T19:47:47.461Z,97182.00
2018-07-06T19:50:15.477Z,97183.00
2018-07-06T19:52:44.111Z,97181.00
2018-07-06T19:55:12.066Z,97186.00
2018-07-06T19:57:40.018Z,97192.00
2018-07-06T20:00:07.928Z,97198.00
2018-07-06T20:02:35.863Z,97203.00
2018-07-06T20:05:03.796Z,97203.00
2018-07-06T20:07:31.784Z,97208.00
2018-07-06T20:09:59.738Z,97221.00
2018-07-06T20:12:27.697Z,97217.00
2018-07-06T20:14:55.681Z,97221.00
2018-07-06T20:17:23.614Z,97227.00
2018-07-06T20:19:51.566Z,97236.00
2018-07-06T20:22:19.488Z,97243.00
2018-07-06T20:24:47.735Z,97255.00
2018-07-06T20:27:16.846Z,97267.00
2018-07-06T20:29:44.806Z,97278.00
2018-07-06T20:32:12.797Z,97279.00
2018-07-06T20:34:40.766Z,97265.00
2018-07-06T20:37:08.761Z,97280.00
2018-07-06T20:39:37.458Z,97280.00
2018-07-06T20:42:05.515Z,97285.00
2018-07-06T20:44:33.475Z,97276.00
2018-07-06T20:47:01.455Z,97271.00
2018-07-06T20:49:29.391Z,97269.00
2018-07-06T20:51:57.382Z,97276.00
2018-07-06T20:54:25.404Z,97281.00
2018-07-06T20:56:53.628Z,97275.00
2018-07-06T20:59:21.592Z,97278.00
2018-07-06T21:01:51.271Z,97266.00
2018-07-06T21:04:19.260Z,97271.00
2018-07-06T21:06:47.192Z,97273.00
2018-07-06T21:09:15.138Z,97270.00
2018-07-06T21:11:43.137Z,97265.00
2018-07-06T21:14:12.504Z,97271.00
2018-07-06T21:16:40.413Z,97265.00
2018-07-06T21:19:08.366Z,97262.00
2018-07-06T21:21:37.386Z,97271.00
2018-07-06T21:24:05.329Z,97262.00
2018-07-06T21:26:33.307Z,97267.00
2018-07-06T21:29:01.244Z,97262.00
2018-07-06T21:31:29.188Z,97258.00
2018-07-06T21:33:57.129Z,97252.00
2018-07-06T21:36:25.070Z,97244.00
2018-07-06T21:38:53.633Z,97246.00
2018-07-06T21:41:21.821Z,97248.00
2018-07-06T21:43:49.959Z,97241.00
2018-07-06T21:46:17.911Z,97248.00
2018-07-06T21:48:45.866Z,97241.00
2018-07-06T21:51:13.880Z,97233.00
2018-07-06T21:53:41.806Z,97243.00
2018-07-06T21:56:09.758Z,97245.00
2018-07-06T21:58:37.691Z,97242.00
2018-07-06T22:01:05.583Z,97246.00
2018-07-06T22:03:33.592Z,97246.00
2018-07-06T22:06:01.533Z,97244.00
2018-07-06T22:08:29.476Z,97236.00
2018-07-06T22:10:57.830Z,97234.00
2018-07-06T22:13:26.651Z,97235.00
2018-07-06T22:15:54.773Z,97240.00
2018-07-06T22:18:23.554Z,97254.00
2018-07-06T22:20:51.501Z,97253.00
2018-07-06T22:23:19.411Z,97261.00
2018-07-06T22:25:47.351Z,97264.00
2018-07-06T22:28:15.328Z,97256.00
2018-07-06T22:30:43.291Z,97258.00
2018-07-06T22:33:11.237Z,97255.00
2018-07-06T22:35:39.315Z,97263.00
2018-07-06T22:38:07.272Z,97278.00
2018-07-06T22:40:35.196Z,97284.00
2018-07-06T22:43:03.188Z,97291.00
2018-07-06T22:45:32.850Z,97300.00
2018-07-06T22:48:00.783Z,97297.00
2018-07-06T22:50:28.757Z,97297.00
2018-07-06T22:52:56.731Z,97293.00
2018-07-06T22:55:24.714Z,97293.00
2018-07-06T22:57:52.661Z,97287.00
2018-07-06T23:00:20.695Z,97294.00
2018-07-06T23:02:48.660Z,97281.00
2018-07-06T23:05:18.022Z,97281.00
2018-07-06T23:07:45.921Z,97275.00
2018-07-06T23:10:13.858Z,97273.00
2018-07-06T23:12:41.835Z,97273.00
2018-07-06T23:15:09.748Z,97273.00
2018-07-06T23:17:39.041Z,97271.00
2018-07-06T23:20:07.185Z,97274.00
2018-07-06T23:23:13.333Z,97267.00
2018-07-06T23:25:44.973Z,97262.00
2018-07-06T23:28:13.215Z,97258.00
2018-07-06T23:30:41.149Z,97244.00
2018-07-06T23:33:11.625Z,97254.00
2018-07-06T23:35:39.720Z,97249.00
2018-07-06T23:38:07.761Z,97254.00
2018-07-06T23:40:35.801Z,97249.00
2018-07-06T23:43:03.770Z,97247.00
2018-07-06T23:45:31.702Z,97254.00
2018-07-06T23:47:59.655Z,97252.00
2018-07-06T23:50:27.588Z,97258.00
2018-07-06T23:52:55.666Z,97246.00
2018-07-06T23:55:23.614Z,97252.00
2018-07-06T23:57:52.048Z,97260.00
